Welcome to Northern Hawkes Bay. New Zealand.
PWS Header
      nz Flag



Hit Counter


W3C Valid W3C Valid logo


    Wairoa

Select any of the Stations below to visit their websites.










Historic Data from Weather Underground
Select the location of interest below. Wairoa is the default. Please have patience, this Data is slow to load in.
Northern Hawkes Bay Historical Data
Daily Summary for April 11, 2017 Units:  English    Metric   Both
« Previous Day
Next Day »
Daily Weekly Monthly Yearly Custom
  High: Low: Average:
Temperature: 78.4 °F 52 °F 64.6 °F
Dew Point: 63 °F 51.4 °F 58.6 °F
Humidity: 99% 58% 82%
Wind Speed: 9.8mph 0mph 1.1mph
Wind Gust: 21.5mph - -
Wind- - SE
Pressure: 30.2 in 30.1 in -
Precipitation: 0 in    
Historical Graphs
 
 
Tabular Data for April 11, 2017
Time Temperature Dew Point Pressure Wind Wind Speed Wind Gust Humidity Rainfall Rate (Hourly) solar
00:03 58.5 °F 57 °F 30.2 in Calm     95% 0 in 0 W/m2
00:10 58.3 °F 56.8 °F 30.2 in Calm     95% 0 in 0 W/m2
00:15 57.6 °F 55.9 °F 30.2 in Calm     94% 0 in 0 W/m2
00:21 57.6 °F 56.1 °F 30.2 in Calm     95% 0 in 0 W/m2
00:27 57.2 °F 55.8 °F 30.2 in Calm     95% 0 in 0 W/m2
00:33 57 °F 55.9 °F 30.2 in Calm     96% 0 in 0 W/m2
00:39 56.8 °F 55.8 °F 30.2 in Calm     96% 0 in 0 W/m2
00:45 56.7 °F 55.8 °F 30.2 in Calm     97% 0 in 0 W/m2
00:51 56.5 °F 55.6 °F 30.2 in Calm     97% 0 in 0 W/m2
00:57 56.5 °F 55.6 °F 30.2 in Calm     97% 0 in 0 W/m2
01:03 56.1 °F 55.2 °F 30.2 in Calm     97% 0 in 0 W/m2
01:10 55.8 °F 54.9 °F 30.2 in Calm     97% 0 in 0 W/m2
01:15 55.6 °F 54.9 °F 30.2 in Calm     97% 0 in 0 W/m2
01:21 55.8 °F 55.2 °F 30.2 in Calm     98% 0 in 0 W/m2
01:27 55.8 °F 55.2 °F 30.2 in Calm     98% 0 in 0 W/m2
01:33 55.2 °F 54.3 °F 30.2 in Calm     97% 0 in 0 W/m2
01:39 55 °F 54.1 °F 30.2 in Calm     97% 0 in 0 W/m2
01:45 54.9 °F 54 °F 30.2 in Calm     97% 0 in 0 W/m2
01:51 54.5 °F 53.8 °F 30.2 in Calm     97% 0 in 0 W/m2
01:57 54.5 °F 53.8 °F 30.2 in Calm     97% 0 in 0 W/m2
02:03 54.5 °F 53.8 °F 30.2 in Calm     97% 0 in 0 W/m2
02:09 54.5 °F 53.8 °F 30.2 in Calm     97% 0 in 0 W/m2
02:15 54.3 °F 53.4 °F 30.2 in Calm     97% 0 in 0 W/m2
02:21 54.3 °F 53.4 °F 30.2 in Calm     97% 0 in 0 W/m2
02:27 54.1 °F 53.2 °F 30.2 in Calm     97% 0 in 0 W/m2
02:33 54 °F 53.1 °F 30.2 in Calm     97% 0 in 0 W/m2
02:39 54 °F 53.1 °F 30.2 in Calm     97% 0 in 0 W/m2
02:45 54 °F 53.1 °F 30.2 in Calm     97% 0 in 0 W/m2
02:51 54 °F 53.1 °F 30.2 in Calm     97% 0 in 0 W/m2
02:57 53.8 °F 53.1 °F 30.2 in Calm     97% 0 in 0 W/m2
03:03 53.8 °F 53.1 °F 30.2 in Calm     97% 0 in 0 W/m2
03:09 53.8 °F 53.1 °F 30.2 in Calm     97% 0 in 0 W/m2
03:15 53.8 °F 53.1 °F 30.2 in Calm     97% 0 in 0 W/m2
03:21 53.8 °F 53.1 °F 30.2 in Calm     97% 0 in 0 W/m2
03:27 53.8 °F 53.1 °F 30.2 in Calm     97% 0 in 0 W/m2
03:33 53.8 °F 53.1 °F 30.2 in Calm   3.8 mph 97% 0 in 0 W/m2
03:39 54 °F 53.1 °F 30.2 in NW 2.2 mph 3.8 mph 97% 0 in 0 W/m2
03:45 53.8 °F 53.1 °F 30.2 in Calm   3.8 mph 97% 0 in 0 W/m2
03:51 53.2 °F 52.7 °F 30.2 in Calm   3.8 mph 98% 0 in 0 W/m2
03:57 53.1 °F 52.5 °F 30.2 in Calm     98% 0 in 0 W/m2
04:03 53.1 °F 52.5 °F 30.2 in NW 2.2 mph 4.5 mph 98% 0 in 0 W/m2
04:10 54 °F 53.1 °F 30.2 in NW 2.2 mph 4.5 mph 97% 0 in 0 W/m2
04:15 53.1 °F 52.5 °F 30.2 in Calm   3.8 mph 98% 0 in 0 W/m2
04:21 52.7 °F 52.2 °F 30.2 in NW 2.2 mph 3.8 mph 98% 0 in 0 W/m2
04:27 53.1 °F 52.5 °F 30.2 in NW 1.6 mph 4.5 mph 98% 0 in 0 W/m2
04:33 52.5 °F 52 °F 30.2 in Calm   4.5 mph 98% 0 in 0 W/m2
04:39 52.7 °F 52.2 °F 30.2 in Calm   1.6 mph 98% 0 in 0 W/m2
04:45 52 °F 51.4 °F 30.2 in Calm     98% 0 in 0 W/m2
04:51 52.5 °F 52 °F 30.2 in Calm     98% 0 in 0 W/m2
04:57 53.6 °F 52.9 °F 30.2 in Calm     97% 0 in 0 W/m2
05:03 52.5 °F 52 °F 30.2 in Calm     98% 0 in 0 W/m2
05:09 52.5 °F 52 °F 30.2 in NNW 2.2 mph 3.8 mph 98% 0 in 0 W/m2
05:15 52.9 °F 52.3 °F 30.2 in Calm   3.8 mph 98% 0 in 0 W/m2
05:21 52.5 °F 52 °F 30.2 in Calm   3.1 mph 98% 0 in 0 W/m2
05:27 52.7 °F 52.2 °F 30.2 in NNW 2.2 mph 4.5 mph 98% 0 in 0 W/m2
05:33 52.7 °F 52.2 °F 30.2 in NNW 2.2 mph 21.5 mph 98% 0 in 0 W/m2
05:39 53.6 °F 52.9 °F 30.2 in Calm   21.5 mph 97% 0 in 0 W/m2
05:45 53.8 °F 53.1 °F 30.2 in Calm   3.1 mph 97% 0 in 0 W/m2
05:51 53.6 °F 52.9 °F 30.2 in Calm     97% 0 in 0 W/m2
05:57 53.6 °F 52.9 °F 30.2 in Calm   3.8 mph 97% 0 in 0 W/m2
06:03 53.4 °F 52.9 °F 30.2 in North 3.8 mph 5.4 mph 98% 0 in 0 W/m2
06:09 53.6 °F 52.9 °F 30.2 in NNW 3.1 mph 6 mph 97% 0 in 0 W/m2
06:15 53.6 °F 52.9 °F 30.2 in Calm   6 mph 97% 0 in 0 W/m2
06:21 53.8 °F 53.1 °F 30.2 in Calm   3.8 mph 97% 0 in 0 W/m2
06:27 53.8 °F 53.1 °F 30.2 in Calm     97% 0 in 1 W/m2
06:33 53.8 °F 53.1 °F 30.2 in Calm     97% 0 in 2 W/m2
06:39 53.6 °F 52.9 °F 30.2 in Calm     97% 0 in 4 W/m2
06:45 53.1 °F 52.5 °F 30.2 in Calm     98% 0 in 6 W/m2
06:51 53.4 °F 52.9 °F 30.2 in Calm     98% 0 in 13 W/m2
06:57 53.2 °F 52.7 °F 30.2 in NW 3.1 mph 3.8 mph 98% 0 in 26 W/m2
07:03 54.1 °F 53.2 °F 30.2 in NW 2.2 mph 4.5 mph 97% 0 in 40 W/m2
07:10 54.5 °F 53.8 °F 30.2 in Calm   4.5 mph 97% 0 in 26 W/m2
07:15 54.7 °F 54 °F 30.2 in Calm   3.1 mph 97% 0 in 84 W/m2
07:21 55.2 °F 54.3 °F 30.2 in Calm     97% 0 in 71 W/m2
07:27 55.8 °F 55.6 °F 30.2 in Calm     99% 0 in 92 W/m2
07:33 55.9 °F 55.8 °F 30.2 in Calm   3.1 mph 99% 0 in 99 W/m2
07:39 57.6 °F 57.4 °F 30.2 in Calm   2.2 mph 99% 0 in 215 W/m2
07:45 57.9 °F 57.7 °F 30.2 in Calm     99% 0 in 261 W/m2
07:51 60.3 °F 60.1 °F 30.2 in Calm     99% 0 in 175 W/m2
07:57 61 °F 60.4 °F 30.2 in NW 3.1 mph 4.5 mph 98% 0 in 201 W/m2
08:03 61.2 °F 58.8 °F 30.2 in NNW 3.8 mph 5.4 mph 92% 0 in 101 W/m2
08:09 61.7 °F 58.8 °F 30.2 in Calm   5.4 mph 90% 0 in 95 W/m2
08:15 61 °F 57.9 °F 30.2 in Calm   3.1 mph 90% 0 in 93 W/m2
08:37 62.6 °F 59.4 °F 30.2 in Calm     89% 0 in 104 W/m2
08:43 62.8 °F 58.5 °F 30.2 in Calm     86% 0 in 120 W/m2
08:50 62.2 °F 58.3 °F 30.2 in NNW 1.6 mph 3.8 mph 87% 0 in 146 W/m2
08:55 62.2 °F 57.9 °F 30.2 in NNW 2.2 mph 6 mph 86% 0 in 247 W/m2
09:01 63.1 °F 58.8 °F 30.2 in Calm   6 mph 86% 0 in 337 W/m2
09:07 65.8 °F 61 °F 30.2 in North 0.7 mph 3.1 mph 84% 0 in 233 W/m2
09:11 66 °F 60.1 °F 30.2 in Calm   3.1 mph 81% 0 in 375 W/m2
09:17 68 °F 61.3 °F 30.2 in North 2.2 mph 3.1 mph 79% 0 in 398 W/m2
09:23 68.9 °F 60.6 °F 30.2 in Calm   3.8 mph 75% 0 in 392 W/m2
09:29 70.2 °F 61.2 °F 30.2 in North 0.7 mph 3.8 mph 73% 0 in 396 W/m2
09:35 71.2 °F 61 °F 30.2 in NNW 3.8 mph 4.5 mph 70% 0 in 225 W/m2
09:41 72.1 °F 61 °F 30.2 in Calm   4.5 mph 68% 0 in 112 W/m2
09:47 72.3 °F 60.4 °F 30.2 in Calm   5.4 mph 66% 0 in 99 W/m2
09:49 72.9 °F 61 °F 30.2 in NNE 2.2 mph 5.4 mph 66% 0 in 100 W/m2
09:55 72.9 °F 61 °F 30.2 in North 1.6 mph 4.5 mph 66% 0 in 115 W/m2
10:01 71.8 °F 59 °F 30.2 in NNW 0.7 mph 7.6 mph 64% 0 in 135 W/m2
10:07 70.7 °F 60.1 °F 30.2 in North 0.7 mph 7.6 mph 69% 0 in 186 W/m2
10:13 71.1 °F 60.8 °F 30.2 in Calm   3.8 mph 70% 0 in 219 W/m2
10:20 70.3 °F 61 °F 30.2 in Calm   3.8 mph 72% 0 in 253 W/m2
10:25 72 °F 61.7 °F 30.2 in Calm     70% 0 in 288 W/m2
10:31 73 °F 61 °F 30.2 in Calm   3.1 mph 66% 0 in 292 W/m2
10:37 73.2 °F 60.3 °F 30.2 in WSW 2.2 mph 4.5 mph 64% 0 in 245 W/m2
10:43 73 °F 61.5 °F 30.2 in SSE 3.1 mph 4.5 mph 67% 0 in 321 W/m2
10:49 72.1 °F 61 °F 30.2 in Calm   4.5 mph 68% 0 in 324 W/m2
10:55 71.2 °F 61.3 °F 30.2 in SSE 3.1 mph 5.4 mph 71% 0 in 305 W/m2
11:01 70.9 °F 61.3 °F 30.2 in SSE 3.8 mph 5.4 mph 72% 0 in 414 W/m2
11:07 71.1 °F 61.5 °F 30.2 in South 3.8 mph 6 mph 72% 0 in 261 W/m2
11:13 71.6 °F 61.3 °F 30.2 in South 3.1 mph 6 mph 70% 0 in 295 W/m2
11:20 70.9 °F 61 °F 30.2 in SSE 3.1 mph 5.4 mph 71% 0 in 335 W/m2
11:25 72 °F 62.1 °F 30.2 in SSE 1.6 mph 5.4 mph 71% 0 in 281 W/m2
11:31 71.4 °F 60.6 °F 30.2 in SSE 2.2 mph 4.5 mph 69% 0 in 278 W/m2
11:37 73 °F 62.2 °F 30.2 in Calm   4.5 mph 69% 0 in 398 W/m2
11:43 72.5 °F 58.3 °F 30.2 in East 0.7 mph 6 mph 61% 0 in 320 W/m2
11:49 72.7 °F 58.5 °F 30.2 in NNE 2.2 mph 7.6 mph 61% 0 in 336 W/m2
11:55 73 °F 58.8 °F 30.2 in NNE 3.8 mph 9.2 mph 61% 0 in 305 W/m2
12:01 72.3 °F 58.1 °F 30.2 in NNE 3.8 mph 9.2 mph 61% 0 in 265 W/m2
12:07 72.5 °F 58.3 °F 30.2 in NE 3.1 mph 7.6 mph 61% 0 in 238 W/m2
12:13 71.6 °F 57.6 °F 30.2 in NNE 1.6 mph 7.6 mph 61% 0 in 214 W/m2
12:19 72.3 °F 58.1 °F 30.2 in NNE 3.1 mph 8.3 mph 61% 0 in 180 W/m2
12:25 72.7 °F 58.5 °F 30.2 in NE 3.1 mph 8.3 mph 61% 0 in 179 W/m2
12:31 72.3 °F 58.6 °F 30.2 in NE 3.1 mph 6 mph 62% 0 in 180 W/m2
12:37 72.5 °F 58.8 °F 30.2 in NE 3.8 mph 7.6 mph 62% 0 in 194 W/m2
12:43 72.3 °F 58.6 °F 30.2 in NE 3.1 mph 7.6 mph 62% 0 in 208 W/m2
12:49 72.3 °F 58.1 °F 30.2 in NE 5.4 mph 8.3 mph 61% 0 in 240 W/m2
12:55 72.3 °F 58.6 °F 30.2 in ENE 6 mph 8.3 mph 62% 0 in 240 W/m2
13:01 72.5 °F 58.8 °F 30.2 in ENE 6 mph 9.2 mph 62% 0 in 216 W/m2
13:07 72.1 °F 58.5 °F 30.1 in ENE 5.4 mph 9.2 mph 62% 0 in 193 W/m2
13:13 72.1 °F 58.8 °F 30.1 in NE 3.8 mph 9.2 mph 63% 0 in 190 W/m2
13:31 72.5 °F 59.7 °F 30.1 in ENE 2.2 mph 7.6 mph 64% 0 in 176 W/m2
13:37 72.3 °F 59 °F 30.1 in NE 4.5 mph 6.9 mph 63% 0 in 148 W/m2
13:43 72.5 °F 59.7 °F 30.1 in ENE 4.5 mph 6.9 mph 64% 0 in 143 W/m2
13:49 72.1 °F 59.4 °F 30.1 in NE 2.2 mph 6 mph 64% 0 in 148 W/m2
13:55 72.3 °F 59.9 °F 30.1 in NE 1.6 mph 5.4 mph 65% 0 in 160 W/m2
14:01 72.9 °F 60.1 °F 30.1 in Calm   3.8 mph 64% 0 in 153 W/m2
14:07 73.2 °F 60.3 °F 30.1 in Calm   3.1 mph 64% 0 in 148 W/m2
14:13 73.2 °F 59.9 °F 30.1 in ENE 1.6 mph 4.5 mph 63% 0 in 155 W/m2
14:19 73.2 °F 60.3 °F 30.1 in Calm   4.5 mph 64% 0 in 165 W/m2
14:25 73 °F 60.6 °F 30.1 in ESE 1.6 mph 3.8 mph 65% 0 in 137 W/m2
14:31 72 °F 61 °F 30.1 in SSE 2.2 mph 4.5 mph 68% 0 in 129 W/m2
14:37 71.8 °F 61.5 °F 30.1 in Calm   4.5 mph 70% 0 in 140 W/m2
14:43 72.1 °F 61.9 °F 30.1 in SE 2.2 mph 3.8 mph 70% 0 in 152 W/m2
14:49 72.3 °F 62.1 °F 30.1 in SSE 1.6 mph 3.8 mph 70% 0 in 163 W/m2
14:55 72.7 °F 62.1 °F 30.1 in South 0.7 mph 3.8 mph 69% 0 in 173 W/m2
15:01 74.1 °F 62.4 °F 30.1 in South 0.7 mph 3.1 mph 67% 0 in 294 W/m2
15:07 77 °F 63 °F 30.1 in SSE 0.7 mph 3.8 mph 62% 0 in 334 W/m2
15:13 78.4 °F 63 °F 30.1 in SE 2.2 mph 3.8 mph 59% 0 in 264 W/m2
15:19 78.4 °F 62.4 °F 30.1 in SE 0.7 mph 3.8 mph 58% 0 in 240 W/m2
15:25 77.9 °F 62.4 °F 30.1 in Calm   3.1 mph 59% 0 in 214 W/m2
15:31 77.4 °F 62.1 °F 30.1 in Calm   3.8 mph 59% 0 in 332 W/m2
15:37 77.5 °F 62.6 °F 30.1 in SE 0.7 mph 5.4 mph 60% 0 in 189 W/m2
15:43 78.4 °F 63 °F 30.1 in Calm   4.5 mph 59% 0 in 175 W/m2
15:49 78.3 °F 62.8 °F 30.1 in Calm   3.1 mph 59% 0 in 111 W/m2
15:55 76.5 °F 62.1 °F 30.1 in ENE 1.6 mph 3.1 mph 61% 0 in 113 W/m2
16:01 75 °F 62.4 °F 30.1 in NE 4.5 mph 6 mph 65% 0 in 101 W/m2
16:07 73.2 °F 61.2 °F 30.1 in NE 3.8 mph 9.2 mph 66% 0 in 89 W/m2
16:13 72.7 °F 61.2 °F 30.1 in NE 3.1 mph 9.2 mph 67% 0 in 94 W/m2
16:19 72.7 °F 61.5 °F 30.1 in NE 3.8 mph 8.3 mph 68% 0 in 94 W/m2
16:25 72.3 °F 61.2 °F 30.1 in NE 6 mph 9.8 mph 68% 0 in 92 W/m2
16:31 72 °F 61.3 °F 30.1 in NE 6.9 mph 10.7 mph 69% 0 in 99 W/m2
16:37 72.5 °F 61.3 °F 30.1 in NE 3.8 mph 10.7 mph 68% 0 in 120 W/m2
16:43 73.2 °F 61.2 °F 30.1 in ENE 6 mph 9.8 mph 66% 0 in 110 W/m2
16:49 72.3 °F 60.8 °F 30.1 in ENE 2.2 mph 9.2 mph 67% 0 in 103 W/m2
16:55 72 °F 61.3 °F 30.1 in ENE 5.4 mph 9.2 mph 69% 0 in 75 W/m2
17:01 71.2 °F 61.9 °F 30.1 in NE 6 mph 11.4 mph 72% 0 in 49 W/m2
17:07 70.5 °F 61.5 °F 30.1 in NE 9.8 mph 11.4 mph 73% 0 in 44 W/m2
17:29 69.6 °F 61 °F 30.1 in ENE 3.8 mph 9.8 mph 74% 0 in 15 W/m2
17:35 69.4 °F 61.2 °F 30.1 in ENE 0.7 mph 9.2 mph 75% 0 in 9 W/m2
17:41 69.1 °F 60.8 °F 30.1 in ENE 3.8 mph 6.9 mph 75% 0 in 3 W/m2
17:47 68.9 °F 60.6 °F 30.1 in Calm   6.9 mph 75% 0 in 1 W/m2
17:53 68.7 °F 61 °F 30.1 in Calm   0.7 mph 76% 0 in 0 W/m2
17:59 68.4 °F 61 °F 30.1 in Calm     77% 0 in 0 W/m2
18:05 68.4 °F 61 °F 30.1 in Calm     77% 0 in 0 W/m2
18:11 68.4 °F 61.3 °F 30.1 in Calm     78% 0 in 0 W/m2
18:17 68.2 °F 61.2 °F 30.1 in Calm     78% 0 in 0 W/m2
18:23 68.2 °F 61.3 °F 30.1 in Calm     79% 0 in 0 W/m2
18:29 68.2 °F 61.3 °F 30.1 in Calm     79% 0 in 0 W/m2
18:35 68.2 °F 61.9 °F 30.1 in Calm     80% 0 in 0 W/m2
18:41 68.2 °F 61.9 °F 30.1 in Calm     80% 0 in 0 W/m2
18:47 68.2 °F 61.9 °F 30.1 in Calm     80% 0 in 0 W/m2
18:53 68.2 °F 61.9 °F 30.1 in Calm     80% 0 in 0 W/m2
19:00 68.2 °F 61.9 °F 30.1 in Calm     80% 0 in 0 W/m2
19:05 68 °F 62.1 °F 30.1 in Calm     81% 0 in 0 W/m2
19:11 68 °F 62.1 °F 30.1 in Calm     81% 0 in 0 W/m2
19:17 68 °F 62.1 °F 30.1 in Calm     81% 0 in 0 W/m2
19:23 68 °F 62.2 °F 30.1 in Calm     82% 0 in 0 W/m2
19:29 67.8 °F 62.4 °F 30.1 in Calm     83% 0 in 0 W/m2
19:35 67.6 °F 62.2 °F 30.1 in Calm     83% 0 in 0 W/m2
19:41 67.5 °F 62.4 °F 30.1 in Calm     84% 0 in 0 W/m2
19:47 67.3 °F 62.2 °F 30.1 in Calm     84% 0 in 0 W/m2
19:53 67.1 °F 62.1 °F 30.1 in Calm     84% 0 in 0 W/m2
19:59 67.1 °F 62.1 °F 30.1 in Calm     84% 0 in 0 W/m2
20:05 67.1 °F 62.1 °F 30.1 in Calm     84% 0 in 0 W/m2
20:11 67.1 °F 62.1 °F 30.1 in Calm     84% 0 in 0 W/m2
20:17 67.1 °F 62.1 °F 30.1 in Calm     84% 0 in 0 W/m2
20:23 66.9 °F 62.2 °F 30.1 in Calm     85% 0 in 0 W/m2
20:29 66.9 °F 62.2 °F 30.1 in Calm     85% 0 in 0 W/m2
20:35 66.9 °F 62.2 °F 30.1 in Calm     85% 0 in 0 W/m2
20:41 66.7 °F 62.1 °F 30.1 in Calm     85% 0 in 0 W/m2
20:47 66.6 °F 61.9 °F 30.1 in Calm     85% 0 in 0 W/m2
20:53 66.6 °F 61.9 °F 30.1 in Calm     85% 0 in 0 W/m2
20:59 66.6 °F 62.2 °F 30.1 in Calm     86% 0 in 0 W/m2
21:05 66.4 °F 62.1 °F 30.1 in Calm     86% 0 in 0 W/m2
21:11 66.2 °F 61.9 °F 30.1 in Calm     86% 0 in 0 W/m2
21:17 66.2 °F 61.9 °F 30.1 in Calm     86% 0 in 0 W/m2
21:23 66 °F 62.4 °F 30.1 in Calm     88% 0 in 0 W/m2
21:29 66 °F 62.4 °F 30.1 in Calm     88% 0 in 0 W/m2
21:35 66 °F 62.4 °F 30.1 in Calm     88% 0 in 0 W/m2
21:41 66 °F 62.4 °F 30.1 in Calm     88% 0 in 0 W/m2
21:47 66 °F 62.4 °F 30.1 in Calm     88% 0 in 0 W/m2
21:53 65.8 °F 62.2 °F 30.1 in Calm     88% 0 in 0 W/m2
21:59 65.8 °F 62.2 °F 30.1 in Calm     88% 0 in 0 W/m2
22:05 66 °F 62.8 °F 30.1 in Calm     89% 0 in 0 W/m2
22:11 66.2 °F 62.6 °F 30.1 in Calm     88% 0 in 0 W/m2
22:17 66.4 °F 62.4 °F 30.1 in NNE 2.2 mph 4.5 mph 87% 0 in 0 W/m2
22:23 66.6 °F 62.6 °F 30.1 in NE 1.6 mph 6 mph 87% 0 in 0 W/m2
22:29 66.7 °F 62.4 °F 30.1 in NE 3.1 mph 6 mph 86% 0 in 0 W/m2
22:35 66.7 °F 62.4 °F 30.1 in NE 3.1 mph 6 mph 86% 0 in 0 W/m2
22:41 67.1 °F 62.4 °F 30.1 in NE 3.8 mph 9.8 mph 85% 0 in 0 W/m2
22:47 67.1 °F 62.4 °F 30.1 in NE 3.1 mph 9.8 mph 85% 0 in 0 W/m2
22:53 67.3 °F 62.6 °F 30.1 in Calm   8.3 mph 85% 0 in 0 W/m2
22:59 67.1 °F 62.4 °F 30.1 in ENE 2.2 mph 3.8 mph 85% 0 in 0 W/m2
23:05 66.9 °F 62.2 °F 30.1 in Calm   3.8 mph 85% 0 in 0 W/m2
23:11 66.9 °F 62.2 °F 30.1 in Calm   3.1 mph 85% 0 in 0 W/m2
23:17 66.7 °F 62.1 °F 30.1 in Calm   2.2 mph 85% 0 in 0 W/m2
23:23 66.6 °F 61.9 °F 30.1 in Calm   2.2 mph 85% 0 in 0 W/m2
23:29 66.6 °F 61.9 °F 30.1 in Calm   0.7 mph 85% 0 in 0 W/m2
23:35 66.6 °F 62.2 °F 30.1 in Calm     86% 0 in 0 W/m2
23:41 66.6 °F 62.2 °F 30.1 in NE 5.4 mph 7.6 mph 86% 0 in 0 W/m2
23:47 66.7 °F 62.1 °F 30.1 in Calm   7.6 mph 85% 0 in 0 W/m2
23:53 66.6 °F 61.9 °F 30.1 in Calm   4.5 mph 85% 0 in 0 W/m2
Northern Hawkes Bay. New Zealand Historic Data
Compliments of Weather Underground - 2 mb